Time;durP1;ratioP1;P1;durP2;ratioP2;P2;SDS_P1;SDS_P2;PMS_P1;PMS_P2;Temp;Humidity;BMP_temperature;BMP_pressure;BME280_temperature;BME280_humidity;BME280_pressure;Samples;Min_cycle;Max_cycle;Signal;HPM_P1;HPM_P2
2023/10/02 00:00:40;;;;;;;;;;;18.50;59.30;;;;;;5041769;28;92995;-48
2023/10/02 00:03:09;;;;;;;;;;;18.50;59.30;;;;;;5040178;27;94188;-48
2023/10/02 00:05:50;;;;;;;;;;;18.50;59.30;;;;;;5041092;27;92117;-49
2023/10/02 00:11:39;;;;;;;;;;;18.60;59.40;;;;;;5040912;28;92306;-52
2023/10/02 00:14:34;;;;;;;;;;;18.50;59.40;;;;;;5037891;28;92025;-53
2023/10/02 00:17:03;;;;;;;;;;;18.50;59.40;;;;;;5039207;28;93126;-52
2023/10/02 00:19:43;;;;;;;;;;;18.50;59.30;;;;;;5043654;27;93536;-53
2023/10/02 00:22:34;;;;;;;;;;;18.50;59.30;;;;;;5038764;28;94078;-48
2023/10/02 00:25:00;;;;;;;;;;;18.50;59.30;;;;;;5038458;27;93814;-47
2023/10/02 00:27:28;;;;;;;;;;;18.50;59.30;;;;;;5040959;28;92106;-50
2023/10/02 00:29:58;;;;;;;;;;;18.50;59.30;;;;;;5039741;28;94247;-51
2023/10/02 00:32:26;;;;;;;;;;;18.50;59.30;;;;;;5040266;27;93527;-48
2023/10/02 00:34:58;;;;;;;;;;;18.50;59.30;;;;;;5040608;27;92143;-52
2023/10/02 00:37:43;;;;;;;;;;;18.50;59.30;;;;;;5040714;27;94068;-51
2023/10/02 00:40:12;;;;;;;;;;;18.50;59.30;;;;;;5038831;27;93523;-50
2023/10/02 00:42:38;;;;;;;;;;;18.50;59.30;;;;;;5043980;28;92229;-52
2023/10/02 00:45:04;;;;;;;;;;;18.50;59.30;;;;;;5039591;27;94280;-49
2023/10/02 00:47:38;;;;;;;;;;;18.40;59.20;;;;;;5040969;28;91339;-52
2023/10/02 00:50:17;;;;;;;;;;;18.40;59.20;;;;;;5040774;27;92045;-50
2023/10/02 00:52:43;;;;;;;;;;;18.40;59.20;;;;;;5039932;27;94382;-51
2023/10/02 00:55:10;;;;;;;;;;;18.40;59.20;;;;;;5039178;28;93523;-48
2023/10/02 00:57:37;;;;;;;;;;;18.40;59.10;;;;;;5040328;28;94202;-50
2023/10/02 01:00:06;;;;;;;;;;;18.40;59.10;;;;;;5039523;28;93451;-50
2023/10/02 01:02:33;;;;;;;;;;;18.40;59.20;;;;;;5039811;27;92206;-46
2023/10/02 01:04:59;;;;;;;;;;;18.40;59.20;;;;;;5042618;27;93766;-50
2023/10/02 01:07:25;;;;;;;;;;;18.40;59.20;;;;;;5040325;27;92159;-48
2023/10/02 01:10:09;;;;;;;;;;;18.40;59.20;;;;;;5040069;27;93047;-51
2023/10/02 01:12:44;;;;;;;;;;;18.40;59.20;;;;;;5036469;28;93592;-49
2023/10/02 01:15:13;;;;;;;;;;;18.40;59.10;;;;;;5039884;28;92057;-52
2023/10/02 01:17:45;;;;;;;;;;;18.40;59.20;;;;;;5040247;28;92870;-46
2023/10/02 01:20:20;;;;;;;;;;;18.30;59.10;;;;;;5035488;28;95466;-52
2023/10/02 01:22:51;;;;;;;;;;;18.30;59.20;;;;;;5040059;28;92480;-48
2023/10/02 01:25:18;;;;;;;;;;;18.30;59.20;;;;;;5039488;28;93964;-51
2023/10/02 01:27:48;;;;;;;;;;;18.30;59.20;;;;;;5042396;27;94690;-48
2023/10/02 01:30:16;;;;;;;;;;;18.30;59.30;;;;;;5039517;28;93137;-47
2023/10/02 01:33:06;;;;;;;;;;;18.30;59.30;;;;;;5039513;28;94520;-48
2023/10/02 01:35:46;;;;;;;;;;;18.30;59.20;;;;;;5038843;28;92191;-49
2023/10/02 01:38:14;;;;;;;;;;;18.20;59.30;;;;;;5037609;28;93761;-51
2023/10/02 01:40:43;;;;;;;;;;;18.20;59.30;;;;;;5038460;28;94783;-50
2023/10/02 01:43:13;;;;;;;;;;;18.20;59.30;;;;;;5040034;27;92242;-49
2023/10/02 01:45:42;;;;;;;;;;;18.20;59.20;;;;;;5038728;27;93040;-53
2023/10/02 01:48:36;;;;;;;;;;;18.20;59.20;;;;;;5039285;28;93232;-51
2023/10/02 01:51:20;;;;;;;;;;;18.20;59.20;;;;;;5040413;28;92078;-48
2023/10/02 01:53:46;;;;;;;;;;;18.20;59.30;;;;;;5036048;28;94457;-50
2023/10/02 01:56:12;;;;;;;;;;;18.20;59.20;;;;;;5039293;28;92216;-49
2023/10/02 01:58:44;;;;;;;;;;;18.20;59.20;;;;;;5039303;27;92771;-52
2023/10/02 02:01:10;;;;;;;;;;;18.20;59.30;;;;;;5038429;27;93069;-50
2023/10/02 02:03:36;;;;;;;;;;;18.10;58.70;;;;;;5036055;28;91259;-50
2023/10/02 02:06:11;;;;;;;;;;;18.20;59.30;;;;;;5038293;28;92103;-51
2023/10/02 02:08:36;;;;;;;;;;;18.20;59.30;;;;;;5038844;28;94385;-50
2023/10/02 02:11:14;;;;;;;;;;;18.20;59.30;;;;;;5041474;27;93077;-52
2023/10/02 02:13:44;;;;;;;;;;;18.10;59.20;;;;;;5036261;28;93592;-50
2023/10/02 02:16:15;;;;;;;;;;;18.10;59.20;;;;;;5037803;28;92235;-49
2023/10/02 02:18:45;;;;;;;;;;;18.10;59.20;;;;;;5038484;28;92649;-52
2023/10/02 02:21:14;;;;;;;;;;;18.10;59.10;;;;;;5038750;27;94512;-48
2023/10/02 02:23:40;;;;;;;;;;;18.10;59.10;;;;;;5038979;28;92050;-48
2023/10/02 02:26:08;;;;;;;;;;;18.10;59.20;;;;;;5038832;28;92632;-49
2023/10/02 02:28:43;;;;;;;;;;;18.10;59.20;;;;;;5038896;27;93904;-50
2023/10/02 02:31:29;;;;;;;;;;;18.10;59.20;;;;;;5037837;28;92143;-51
2023/10/02 02:34:14;;;;;;;;;;;18.00;59.10;;;;;;5038375;28;92970;-53
2023/10/02 02:36:41;;;;;;;;;;;18.00;59.20;;;;;;5034272;28;93005;-50
2023/10/02 02:39:15;;;;;;;;;;;18.00;59.10;;;;;;5038879;27;95023;-54
2023/10/02 02:41:48;;;;;;;;;;;18.00;59.10;;;;;;5037766;27;94889;-50
2023/10/02 02:47:07;;;;;;;;;;;18.00;59.10;;;;;;5039104;28;92018;-54
2023/10/02 02:49:48;;;;;;;;;;;18.00;59.10;;;;;;5038181;27;94578;-53
2023/10/02 02:52:17;;;;;;;;;;;18.00;59.10;;;;;;5038659;27;92178;-50
2023/10/02 02:54:44;;;;;;;;;;;18.00;59.10;;;;;;5039128;27;93793;-52
2023/10/02 02:57:12;;;;;;;;;;;18.00;59.00;;;;;;5040743;27;94513;-51
2023/10/02 02:59:38;;;;;;;;;;;17.90;59.00;;;;;;5038088;28;92418;-51
2023/10/02 03:02:10;;;;;;;;;;;18.00;59.10;;;;;;5036988;28;95712;-52
2023/10/02 03:04:36;;;;;;;;;;;18.00;59.00;;;;;;5035213;28;92635;-53
2023/10/02 03:07:09;;;;;;;;;;;17.90;59.00;;;;;;5038727;27;92631;-52
2023/10/02 03:09:35;;;;;;;;;;;17.90;59.00;;;;;;5038299;27;93054;-51
2023/10/02 03:12:05;;;;;;;;;;;18.00;59.00;;;;;;5037973;28;92309;-49
2023/10/02 03:14:32;;;;;;;;;;;17.90;58.90;;;;;;5034488;28;93512;-54
2023/10/02 03:17:22;;;;;;;;;;;17.90;59.00;;;;;;5038087;27;93258;-52
2023/10/02 03:19:45;;;;;;;;;;;17.90;59.00;;;;;;5038484;28;91412;-52
2023/10/02 03:22:11;;;;;;;;;;;17.90;59.10;;;;;;5037732;27;94366;-52
2023/10/02 03:24:39;;;;;;;;;;;17.80;59.00;;;;;;5038525;27;92496;-54
2023/10/02 03:27:08;;;;;;;;;;;17.90;59.00;;;;;;5037361;27;93073;-50
2023/10/02 03:29:34;;;;;;;;;;;17.80;59.00;;;;;;5039060;27;93134;-52
2023/10/02 03:32:00;;;;;;;;;;;17.80;59.00;;;;;;5040542;28;92152;-54
2023/10/02 03:34:29;;;;;;;;;;;17.80;59.60;;;;;;5041746;28;93841;-56
2023/10/02 03:36:59;;;;;;;;;;;17.80;59.00;;;;;;5041330;28;92611;-53
2023/10/02 03:42:21;;;;;;;;;;;17.80;58.90;;;;;;5040284;28;92125;-51
2023/10/02 03:44:48;;;;;;;;;;;17.80;58.90;;;;;;5038346;28;91797;-51
2023/10/02 03:47:13;;;;;;;;;;;17.80;59.00;;;;;;5041781;27;92023;-54
2023/10/02 03:49:43;;;;;;;;;;;17.70;58.90;;;;;;5039666;28;96505;-51
2023/10/02 03:52:09;;;;;;;;;;;17.80;58.90;;;;;;5040898;28;93395;-53
2023/10/02 03:54:35;;;;;;;;;;;17.70;58.90;;;;;;5041594;28;93525;-49
2023/10/02 03:57:01;;;;;;;;;;;17.70;58.90;;;;;;5043921;27;93163;-51
2023/10/02 03:59:31;;;;;;;;;;;17.70;58.90;;;;;;5041384;27;92200;-54
2023/10/02 04:02:24;;;;;;;;;;;17.70;58.40;;;;;;5040220;28;95800;-54
2023/10/02 04:04:43;;;;;;;;;;;17.70;58.80;;;;;;5041092;28;94620;-52
2023/10/02 04:07:11;;;;;;;;;;;17.70;58.80;;;;;;5041580;28;92122;-49
2023/10/02 04:09:37;;;;;;;;;;;17.70;58.70;;;;;;5041108;27;93931;-51
2023/10/02 04:12:06;;;;;;;;;;;17.70;58.70;;;;;;5041119;27;92185;-54
2023/10/02 04:14:32;;;;;;;;;;;17.60;58.70;;;;;;5037827;28;92633;-50
2023/10/02 04:17:20;;;;;;;;;;;17.70;58.70;;;;;;5039492;27;94174;-51
2023/10/02 04:19:49;;;;;;;;;;;17.70;58.60;;;;;;5038304;28;92106;-52
2023/10/02 04:22:27;;;;;;;;;;;17.60;58.60;;;;;;5042839;27;92574;-53
2023/10/02 04:24:58;;;;;;;;;;;17.70;58.50;;;;;;5039694;27;93449;-54
2023/10/02 04:32:34;;;;;;;;;;;17.60;58.40;;;;;;5040080;27;92221;-54
2023/10/02 04:35:02;;;;;;;;;;;17.60;58.50;;;;;;5037790;27;93383;-49
2023/10/02 04:37:31;;;;;;;;;;;17.60;58.10;;;;;;5040358;27;94402;-51
2023/10/02 04:42:29;;;;;;;;;;;17.60;58.60;;;;;;5042125;27;93471;-53
2023/10/02 04:44:57;;;;;;;;;;;17.50;58.50;;;;;;5034665;27;95469;-51
2023/10/02 04:47:26;;;;;;;;;;;17.50;58.50;;;;;;5042419;28;92191;-52
2023/10/02 04:55:24;;;;;;;;;;;17.50;58.40;;;;;;5038624;27;92169;-48
2023/10/02 04:57:52;;;;;;;;;;;17.50;58.40;;;;;;5040333;27;93144;-52
2023/10/02 05:00:33;;;;;;;;;;;17.50;58.40;;;;;;5038777;27;92178;-53
2023/10/02 05:03:09;;;;;;;;;;;17.50;58.40;;;;;;5038088;27;93048;-55
2023/10/02 05:06:03;;;;;;;;;;;17.50;58.40;;;;;;5036750;28;94355;-51
2023/10/02 05:08:40;;;;;;;;;;;17.50;58.40;;;;;;5034300;27;94948;-52
2023/10/02 05:11:07;;;;;;;;;;;17.50;58.40;;;;;;5040936;27;93493;-53
2023/10/02 05:16:29;;;;;;;;;;;17.50;58.20;;;;;;5036849;27;92247;-55
2023/10/02 05:18:55;;;;;;;;;;;17.50;58.20;;;;;;5037807;27;93303;-54
2023/10/02 05:21:35;;;;;;;;;;;17.50;58.40;;;;;;5036907;27;92200;-50
2023/10/02 05:24:07;;;;;;;;;;;17.40;58.20;;;;;;5037153;28;94113;-53
2023/10/02 05:26:34;;;;;;;;;;;17.40;58.20;;;;;;5039572;28;92143;-50
2023/10/02 05:29:00;;;;;;;;;;;17.40;58.10;;;;;;5039187;27;92217;-52
2023/10/02 05:31:27;;;;;;;;;;;17.50;58.10;;;;;;5040018;27;92876;-54
2023/10/02 05:33:53;;;;;;;;;;;17.40;58.10;;;;;;5042165;27;94134;-54
2023/10/02 05:36:21;;;;;;;;;;;17.40;58.10;;;;;;5039471;27;93427;-50
2023/10/02 05:39:16;;;;;;;;;;;17.40;58.00;;;;;;5035472;27;94886;-49
2023/10/02 05:41:44;;;;;;;;;;;17.40;57.90;;;;;;5038430;27;93002;-52
2023/10/02 05:44:19;;;;;;;;;;;17.40;57.90;;;;;;5039878;28;94035;-51
2023/10/02 05:46:55;;;;;;;;;;;17.40;57.90;;;;;;5037842;27;94779;-50
2023/10/02 05:49:23;;;;;;;;;;;17.40;58.00;;;;;;5037277;27;92279;-53
2023/10/02 05:51:55;;;;;;;;;;;17.40;58.00;;;;;;5035185;28;92971;-51
2023/10/02 05:54:29;;;;;;;;;;;17.40;58.00;;;;;;5038531;27;93997;-54
2023/10/02 05:57:13;;;;;;;;;;;17.40;58.00;;;;;;5043409;27;93874;-51
2023/10/02 05:59:45;;;;;;;;;;;17.30;58.00;;;;;;5032533;27;94699;-54
2023/10/02 06:02:14;;;;;;;;;;;17.40;58.00;;;;;;5038431;28;92169;-49
2023/10/02 06:04:52;;;;;;;;;;;17.40;58.00;;;;;;5037799;27;94207;-51
2023/10/02 06:10:07;;;;;;;;;;;17.30;57.90;;;;;;5038025;28;92146;-53
2023/10/02 06:12:33;;;;;;;;;;;17.40;58.00;;;;;;5039045;27;94121;-56
2023/10/02 06:15:04;;;;;;;;;;;17.30;57.90;;;;;;5037059;27;93164;-52
2023/10/02 06:17:32;;;;;;;;;;;17.40;57.90;;;;;;5034708;27;91391;-52
2023/10/02 06:19:57;;;;;;;;;;;17.40;57.90;;;;;;5041697;27;93440;-54
2023/10/02 06:22:23;;;;;;;;;;;17.30;57.90;;;;;;5038355;27;92109;-51
2023/10/02 06:24:48;;;;;;;;;;;17.30;58.00;;;;;;5038085;27;94303;-54
2023/10/02 06:27:15;;;;;;;;;;;17.30;57.90;;;;;;5035935;27;94059;-52
2023/10/02 06:29:44;;;;;;;;;;;17.30;57.90;;;;;;5038753;27;92484;-50
2023/10/02 06:32:20;;;;;;;;;;;17.30;57.80;;;;;;5036988;27;92744;-52
2023/10/02 06:34:50;;;;;;;;;;;17.30;57.80;;;;;;5036246;27;93256;-53
2023/10/02 06:37:17;;;;;;;;;;;17.30;57.80;;;;;;5035077;27;92167;-52
2023/10/02 06:39:45;;;;;;;;;;;17.30;57.90;;;;;;5041759;27;92728;-53
2023/10/02 06:42:12;;;;;;;;;;;17.30;57.80;;;;;;5037541;27;91861;-51
2023/10/02 06:44:41;;;;;;;;;;;17.30;57.80;;;;;;5036361;27;93494;-49
2023/10/02 06:47:13;;;;;;;;;;;17.30;57.90;;;;;;5034399;27;95123;-55
2023/10/02 06:49:43;;;;;;;;;;;17.30;57.80;;;;;;5038048;28;93516;-53
2023/10/02 06:52:15;;;;;;;;;;;17.30;57.80;;;;;;5037007;27;93603;-53
2023/10/02 06:54:44;;;;;;;;;;;17.30;57.80;;;;;;5030518;27;93425;-52
2023/10/02 06:57:13;;;;;;;;;;;17.30;57.90;;;;;;5036910;28;92166;-52
2023/10/02 06:59:39;;;;;;;;;;;17.30;57.90;;;;;;5037941;27;93960;-51
2023/10/02 07:02:06;;;;;;;;;;;17.30;57.90;;;;;;5038262;27;93228;-51
2023/10/02 07:04:35;;;;;;;;;;;17.30;57.80;;;;;;5034811;27;94584;-51
2023/10/02 07:07:03;;;;;;;;;;;17.30;57.80;;;;;;5037808;27;92790;-54
2023/10/02 07:09:33;;;;;;;;;;;17.30;57.80;;;;;;5040217;27;92130;-52
2023/10/02 07:12:08;;;;;;;;;;;17.30;57.70;;;;;;5036471;28;92689;-53
2023/10/02 07:14:36;;;;;;;;;;;17.40;57.70;;;;;;5036229;27;94163;-51
2023/10/02 07:17:17;;;;;;;;;;;17.30;57.80;;;;;;5038114;27;92191;-53
2023/10/02 07:19:49;;;;;;;;;;;17.30;57.80;;;;;;5033525;27;92181;-50
2023/10/02 07:22:22;;;;;;;;;;;17.30;57.80;;;;;;5035645;27;92393;-52
2023/10/02 07:24:47;;;;;;;;;;;17.30;57.80;;;;;;5039144;27;92326;-50
2023/10/02 07:27:23;;;;;;;;;;;17.30;57.70;;;;;;5037782;28;93375;-53
2023/10/02 07:29:53;;;;;;;;;;;17.30;57.80;;;;;;5036309;27;92141;-51
2023/10/02 07:32:19;;;;;;;;;;;17.30;57.70;;;;;;5036386;27;92648;-54
2023/10/02 07:34:47;;;;;;;;;;;17.30;57.70;;;;;;5037850;28;93397;-51
2023/10/02 07:37:15;;;;;;;;;;;17.30;57.80;;;;;;5037568;27;92213;-54
2023/10/02 07:39:42;;;;;;;;;;;17.30;57.70;;;;;;5037395;27;93304;-53
2023/10/02 07:42:10;;;;;;;;;;;17.30;58.40;;;;;;5037576;27;92430;-52
2023/10/02 07:44:38;;;;;;;;;;;17.30;57.70;;;;;;5038274;27;92186;-53
2023/10/02 07:47:16;;;;;;;;;;;17.30;57.70;;;;;;5042320;27;92620;-49
2023/10/02 07:49:46;;;;;;;;;;;17.30;57.70;;;;;;5036350;27;92193;-50
2023/10/02 07:52:26;;;;;;;;;;;17.30;57.70;;;;;;5033085;28;95394;-51
2023/10/02 07:54:58;;;;;;;;;;;17.20;57.70;;;;;;5035443;28;94644;-51
2023/10/02 07:57:30;;;;;;;;;;;17.30;57.80;;;;;;5036868;27;93202;-52
2023/10/02 07:59:57;;;;;;;;;;;17.30;57.80;;;;;;5033481;27;93369;-51
2023/10/02 08:02:23;;;;;;;;;;;17.30;57.80;;;;;;5036495;27;93195;-54
2023/10/02 08:04:51;;;;;;;;;;;17.30;57.80;;;;;;5036619;27;93173;-55
2023/10/02 08:07:19;;;;;;;;;;;17.30;57.80;;;;;;5035730;27;93760;-52
2023/10/02 08:09:48;;;;;;;;;;;17.30;57.80;;;;;;5035014;27;93317;-52
2023/10/02 08:12:29;;;;;;;;;;;17.20;57.80;;;;;;5037948;28;92371;-54
2023/10/02 08:15:01;;;;;;;;;;;17.30;57.80;;;;;;5036472;27;93281;-53
2023/10/02 08:20:19;;;;;;;;;;;17.30;57.80;;;;;;5035237;27;92503;-52
2023/10/02 08:22:45;;;;;;;;;;;17.30;57.80;;;;;;5040879;27;93790;-53
2023/10/02 08:25:14;;;;;;;;;;;17.30;57.80;;;;;;5039167;27;92326;-51
2023/10/02 08:27:44;;;;;;;;;;;17.30;57.80;;;;;;5038945;27;92490;-51
2023/10/02 08:30:26;;;;;;;;;;;17.20;57.70;;;;;;5038506;27;94615;-54
2023/10/02 08:32:52;;;;;;;;;;;17.20;57.80;;;;;;5043631;27;92498;-50
2023/10/02 08:35:19;;;;;;;;;;;17.30;57.80;;;;;;5038537;27;93842;-50
2023/10/02 08:37:45;;;;;;;;;;;17.30;57.80;;;;;;5038155;27;92848;-49
2023/10/02 08:40:14;;;;;;;;;;;17.20;57.80;;;;;;5041168;28;92563;-50
2023/10/02 08:42:46;;;;;;;;;;;17.20;57.70;;;;;;5039995;27;94459;-52
2023/10/02 08:45:18;;;;;;;;;;;17.30;57.80;;;;;;5037845;27;92462;-50
2023/10/02 08:47:47;;;;;;;;;;;17.30;57.70;;;;;;5038746;27;93597;-54
2023/10/02 08:50:15;;;;;;;;;;;17.20;57.70;;;;;;5040211;27;93043;-52
2023/10/02 08:52:48;;;;;;;;;;;17.30;57.70;;;;;;5042647;27;92091;-52
2023/10/02 08:58:19;;;;;;;;;;;17.30;57.70;;;;;;5041027;28;92055;-49
2023/10/02 09:01:06;;;;;;;;;;;17.30;57.70;;;;;;5040286;27;92766;-55
2023/10/02 09:03:42;;;;;;;;;;;17.30;57.70;;;;;;5036450;27;94924;-54
2023/10/02 09:06:27;;;;;;;;;;;17.30;57.60;;;;;;5035030;27;92168;-55
2023/10/02 09:11:37;;;;;;;;;;;17.30;57.70;;;;;;5038585;27;92333;-54
2023/10/02 09:17:07;;;;;;;;;;;17.30;57.50;;;;;;5034057;28;92460;-53
2023/10/02 09:19:37;;;;;;;;;;;17.30;57.50;;;;;;5038952;28;93968;-53
2023/10/02 09:22:06;;;;;;;;;;;17.30;57.60;;;;;;5040154;27;94763;-48
2023/10/02 09:24:35;;;;;;;;;;;17.30;57.70;;;;;;5039114;27;94922;-52
2023/10/02 09:30:21;;;;;;;;;;;17.30;57.50;;;;;;5036705;27;93401;-52
2023/10/02 09:32:51;;;;;;;;;;;17.30;57.50;;;;;;5035134;27;93775;-53
2023/10/02 09:35:25;;;;;;;;;;;17.40;57.60;;;;;;5040235;27;92162;-52
2023/10/02 09:38:04;;;;;;;;;;;17.30;57.50;;;;;;5039296;27;92671;-48
2023/10/02 09:40:53;;;;;;;;;;;17.40;57.40;;;;;;5036969;27;95187;-51
2023/10/02 09:43:17;;;;;;;;;;;17.30;57.30;;;;;;5037837;28;93061;-49
2023/10/02 09:45:46;;;;;;;;;;;17.40;57.40;;;;;;5039364;27;93150;-50
2023/10/02 09:48:46;;;;;;;;;;;17.40;57.40;;;;;;5036383;27;94672;-47
2023/10/02 09:51:06;;;;;;;;;;;17.40;57.30;;;;;;5034398;27;94604;-54
2023/10/02 09:53:41;;;;;;;;;;;17.40;57.30;;;;;;5039224;27;94775;-52
2023/10/02 09:56:14;;;;;;;;;;;17.40;57.30;;;;;;5035647;27;92155;-51
2023/10/02 09:58:49;;;;;;;;;;;17.40;57.20;;;;;;5035755;27;93359;-50
2023/10/02 10:03:50;;;;;;;;;;;17.40;57.10;;;;;;5038774;27;92283;-51
2023/10/02 10:06:17;;;;;;;;;;;17.40;57.20;;;;;;5042308;27;93612;-53
2023/10/02 10:11:39;;;;;;;;;;;17.50;57.10;;;;;;5039636;28;92526;-47
2023/10/02 10:14:35;;;;;;;;;;;17.50;57.10;;;;;;5037462;27;95481;-47
2023/10/02 10:17:03;;;;;;;;;;;17.50;57.10;;;;;;5036041;27;94002;-53
2023/10/02 10:19:31;;;;;;;;;;;17.50;57.10;;;;;;5039755;27;93812;-50
2023/10/02 10:21:57;;;;;;;;;;;17.50;57.10;;;;;;5038641;27;93577;-52
2023/10/02 10:24:58;;;;;;;;;;;17.50;57.00;;;;;;5037296;27;93356;-48
2023/10/02 10:27:43;;;;;;;;;;;17.50;56.90;;;;;;5039420;27;93134;-52
2023/10/02 10:35:56;;;;;;;;;;;17.50;56.90;;;;;;5036351;27;93134;-51
2023/10/02 10:38:22;;;;;;;;;;;17.60;57.00;;;;;;5036856;27;92071;-49
2023/10/02 10:40:50;;;;;;;;;;;17.60;56.80;;;;;;5038096;28;93171;-47
2023/10/02 10:43:20;;;;;;;;;;;17.60;56.70;;;;;;5038879;27;94767;-50
2023/10/02 10:45:48;;;;;;;;;;;17.60;56.80;;;;;;5033663;27;92266;-50
2023/10/02 10:48:21;;;;;;;;;;;17.60;56.60;;;;;;5040934;27;92440;-49
2023/10/02 10:51:00;;;;;;;;;;;17.60;56.70;;;;;;5038538;27;92614;-51
2023/10/02 10:53:28;;;;;;;;;;;17.60;56.60;;;;;;5036487;27;92212;-50
2023/10/02 10:55:59;;;;;;;;;;;17.70;56.70;;;;;;5036747;27;93000;-52
2023/10/02 10:58:33;;;;;;;;;;;17.70;56.60;;;;;;5038975;28;91372;-51
2023/10/02 11:01:02;;;;;;;;;;;17.70;56.60;;;;;;5038134;27;92241;-47
2023/10/02 11:03:30;;;;;;;;;;;17.70;56.50;;;;;;5037505;27;94340;-53
2023/10/02 11:06:06;;;;;;;;;;;17.70;56.40;;;;;;5037239;27;93240;-50
2023/10/02 11:08:37;;;;;;;;;;;17.70;56.50;;;;;;5036402;28;93454;-52
2023/10/02 11:11:18;;;;;;;;;;;17.70;56.40;;;;;;5039907;27;94603;-54
2023/10/02 11:14:01;;;;;;;;;;;17.70;56.40;;;;;;5035553;27;92180;-49
2023/10/02 11:16:30;;;;;;;;;;;17.70;56.30;;;;;;5037004;28;94846;-53
2023/10/02 11:19:14;;;;;;;;;;;17.80;56.30;;;;;;5038143;27;92140;-53
2023/10/02 11:21:59;;;;;;;;;;;17.80;56.30;;;;;;5038369;27;92931;-51
2023/10/02 11:24:25;;;;;;;;;;;17.80;56.30;;;;;;5035392;27;94695;-49
2023/10/02 11:26:53;;;;;;;;;;;17.80;56.20;;;;;;5038693;28;92172;-54
2023/10/02 11:29:22;;;;;;;;;;;17.80;56.20;;;;;;5038172;27;92617;-52
2023/10/02 11:32:18;;;;;;;;;;;17.80;56.10;;;;;;5034623;27;94180;-52
2023/10/02 11:34:43;;;;;;;;;;;17.80;56.10;;;;;;5038411;27;92562;-55
2023/10/02 11:37:18;;;;;;;;;;;17.80;56.10;;;;;;5038072;28;92403;-50
2023/10/02 11:39:44;;;;;;;;;;;17.80;56.00;;;;;;5037785;27;92106;-51
2023/10/02 11:42:09;;;;;;;;;;;17.90;56.10;;;;;;5036987;27;92653;-51
2023/10/02 11:44:35;;;;;;;;;;;17.90;56.00;;;;;;5037445;27;94162;-48
2023/10/02 11:47:01;;;;;;;;;;;17.90;56.00;;;;;;5037035;27;92468;-52
2023/10/02 11:49:29;;;;;;;;;;;17.90;55.90;;;;;;5039297;27;92722;-53
2023/10/02 11:52:00;;;;;;;;;;;17.90;55.90;;;;;;5037139;27;93052;-52
2023/10/02 11:54:26;;;;;;;;;;;17.90;55.80;;;;;;5041861;27;92472;-52
2023/10/02 11:56:51;;;;;;;;;;;18.00;55.90;;;;;;5042864;28;93092;-53
2023/10/02 11:59:17;;;;;;;;;;;18.00;55.80;;;;;;5041458;27;92625;-55
2023/10/02 12:01:45;;;;;;;;;;;18.00;55.90;;;;;;5039750;27;93455;-51
2023/10/02 12:04:10;;;;;;;;;;;18.00;55.80;;;;;;5040186;27;93337;-54
2023/10/02 12:06:38;;;;;;;;;;;18.00;55.70;;;;;;5040458;27;92642;-52
2023/10/02 12:09:04;;;;;;;;;;;18.00;55.60;;;;;;5039227;27;94082;-48
2023/10/02 12:11:32;;;;;;;;;;;18.10;55.70;;;;;;5039713;27;94776;-51
2023/10/02 12:13:57;;;;;;;;;;;18.10;55.70;;;;;;5041953;28;91375;-52
2023/10/02 12:16:23;;;;;;;;;;;18.10;55.70;;;;;;5042127;27;92400;-52
2023/10/02 12:18:52;;;;;;;;;;;18.10;55.50;;;;;;5041227;27;93536;-49
2023/10/02 12:21:19;;;;;;;;;;;18.10;55.50;;;;;;5038119;28;94087;-53
2023/10/02 12:23:46;;;;;;;;;;;18.10;55.50;;;;;;5042147;27;94603;-48
2023/10/02 12:26:15;;;;;;;;;;;18.10;55.60;;;;;;5039450;27;94313;-53
2023/10/02 12:28:41;;;;;;;;;;;18.10;55.50;;;;;;5037760;27;92760;-53
2023/10/02 12:31:07;;;;;;;;;;;18.20;55.50;;;;;;5040616;27;92392;-48
2023/10/02 12:33:35;;;;;;;;;;;18.20;55.50;;;;;;5039889;27;92192;-51
2023/10/02 12:36:00;;;;;;;;;;;18.20;55.50;;;;;;5038753;27;92868;-50
2023/10/02 12:38:26;;;;;;;;;;;18.10;55.40;;;;;;5039980;27;93195;-51
2023/10/02 12:40:51;;;;;;;;;;;18.20;55.50;;;;;;5044100;28;92183;-51
2023/10/02 12:43:17;;;;;;;;;;;18.20;55.40;;;;;;5042533;27;92765;-53
2023/10/02 12:45:43;;;;;;;;;;;18.20;55.20;;;;;;5037886;27;94051;-50
2023/10/02 12:48:08;;;;;;;;;;;18.20;55.30;;;;;;5037899;28;94898;-51
2023/10/02 12:50:38;;;;;;;;;;;18.30;55.40;;;;;;5039675;27;94426;-50
2023/10/02 12:53:04;;;;;;;;;;;18.30;55.20;;;;;;5039909;27;92211;-53
2023/10/02 12:55:32;;;;;;;;;;;18.30;55.20;;;;;;5038712;27;92567;-50
2023/10/02 12:57:58;;;;;;;;;;;18.30;55.20;;;;;;5040376;27;92428;-53
2023/10/02 13:00:24;;;;;;;;;;;18.30;55.00;;;;;;5045003;27;92144;-49
2023/10/02 13:02:49;;;;;;;;;;;18.30;55.10;;;;;;5038365;27;94099;-53
2023/10/02 13:05:15;;;;;;;;;;;18.30;55.00;;;;;;5037602;27;93236;-47
2023/10/02 13:07:41;;;;;;;;;;;18.30;55.00;;;;;;5040561;27;92085;-53
2023/10/02 13:10:08;;;;;;;;;;;18.30;54.90;;;;;;5039231;27;94182;-49
2023/10/02 13:12:34;;;;;;;;;;;18.40;55.00;;;;;;5040802;27;92327;-50
2023/10/02 13:15:00;;;;;;;;;;;18.30;54.90;;;;;;5039073;27;92704;-54
2023/10/02 13:17:25;;;;;;;;;;;18.40;55.00;;;;;;5040059;27;92891;-50
2023/10/02 13:19:51;;;;;;;;;;;18.40;55.00;;;;;;5038583;27;93627;-51
2023/10/02 13:22:16;;;;;;;;;;;18.40;54.80;;;;;;5039943;27;94117;-54
2023/10/02 13:24:42;;;;;;;;;;;18.40;54.60;;;;;;5039042;27;92206;-52
2023/10/02 13:27:09;;;;;;;;;;;18.40;55.20;;;;;;5040783;27;92528;-50
2023/10/02 13:29:34;;;;;;;;;;;18.40;54.70;;;;;;5038794;27;93578;-52
2023/10/02 13:32:01;;;;;;;;;;;18.50;54.70;;;;;;5038285;27;92182;-52
2023/10/02 13:34:27;;;;;;;;;;;18.50;54.70;;;;;;5035906;27;93775;-54
2023/10/02 13:36:52;;;;;;;;;;;18.40;54.50;;;;;;5039361;27;94596;-52
2023/10/02 13:39:19;;;;;;;;;;;18.50;54.70;;;;;;5038115;27;92257;-48
2023/10/02 13:41:45;;;;;;;;;;;18.50;54.70;;;;;;5038464;27;92516;-50
2023/10/02 13:44:11;;;;;;;;;;;18.50;54.70;;;;;;5041594;27;94238;-51
2023/10/02 13:46:39;;;;;;;;;;;18.50;54.50;;;;;;5039750;27;93987;-52
2023/10/02 13:49:05;;;;;;;;;;;18.60;54.60;;;;;;5037039;27;94344;-51
2023/10/02 13:51:31;;;;;;;;;;;18.60;54.50;;;;;;5036257;27;91476;-53
2023/10/02 13:53:57;;;;;;;;;;;18.60;54.50;;;;;;5040111;27;92577;-52
2023/10/02 13:56:25;;;;;;;;;;;18.60;54.50;;;;;;5038599;28;95081;-52
2023/10/02 13:58:51;;;;;;;;;;;18.60;54.50;;;;;;5036917;27;93442;-52
2023/10/02 14:01:21;;;;;;;;;;;18.60;55.10;;;;;;5037197;27;94823;-54
2023/10/02 14:03:52;;;;;;;;;;;18.60;54.50;;;;;;5039066;27;92786;-54
2023/10/02 14:06:19;;;;;;;;;;;18.60;54.60;;;;;;5041277;27;92161;-48
2023/10/02 14:08:45;;;;;;;;;;;18.60;54.60;;;;;;5036951;27;93226;-51
2023/10/02 14:11:17;;;;;;;;;;;18.60;54.50;;;;;;5036086;27;92351;-49
2023/10/02 14:13:47;;;;;;;;;;;18.70;54.40;;;;;;5038718;27;92082;-51
2023/10/02 14:16:14;;;;;;;;;;;18.60;54.50;;;;;;5037738;27;92524;-51
2023/10/02 14:18:39;;;;;;;;;;;18.60;54.60;;;;;;5040107;27;93263;-53
2023/10/02 14:21:06;;;;;;;;;;;18.70;54.70;;;;;;5038252;28;92610;-52
2023/10/02 14:23:32;;;;;;;;;;;18.70;54.50;;;;;;5038361;27;94202;-51
2023/10/02 14:25:59;;;;;;;;;;;18.60;54.40;;;;;;5037568;27;93893;-50
2023/10/02 14:28:25;;;;;;;;;;;18.70;54.50;;;;;;5038481;27;92649;-50
2023/10/02 14:30:51;;;;;;;;;;;18.70;54.50;;;;;;5039490;27;92190;-51
2023/10/02 14:33:17;;;;;;;;;;;18.70;54.50;;;;;;5040405;27;93038;-51
2023/10/02 14:35:43;;;;;;;;;;;18.70;54.50;;;;;;5036291;27;94750;-47
2023/10/02 14:38:10;;;;;;;;;;;18.70;54.50;;;;;;5034169;27;92258;-48
2023/10/02 14:40:36;;;;;;;;;;;18.70;54.40;;;;;;5039669;27;92552;-50
2023/10/02 14:43:02;;;;;;;;;;;18.70;54.40;;;;;;5038037;27;93575;-49
2023/10/02 14:45:31;;;;;;;;;;;18.70;54.30;;;;;;5036894;27;92235;-51
2023/10/02 14:47:57;;;;;;;;;;;18.70;54.50;;;;;;5037312;27;93462;-52
2023/10/02 14:50:24;;;;;;;;;;;18.70;54.50;;;;;;5040637;27;94687;-54
2023/10/02 14:52:50;;;;;;;;;;;18.70;54.30;;;;;;5037391;27;92651;-51
2023/10/02 14:55:17;;;;;;;;;;;18.70;54.50;;;;;;5036555;27;93269;-48
2023/10/02 14:57:47;;;;;;;;;;;18.80;54.50;;;;;;5036324;27;92151;-49
2023/10/02 15:00:14;;;;;;;;;;;18.80;54.50;;;;;;5039094;28;92895;-49
2023/10/02 15:02:41;;;;;;;;;;;18.80;54.50;;;;;;5036599;27;93248;-50
2023/10/02 15:05:07;;;;;;;;;;;18.80;54.60;;;;;;5036816;27;91853;-53
2023/10/02 15:07:33;;;;;;;;;;;18.80;54.60;;;;;;5037050;28;92205;-51
2023/10/02 15:09:59;;;;;;;;;;;18.80;54.50;;;;;;5041451;27;93491;-50
2023/10/02 15:12:25;;;;;;;;;;;18.80;54.50;;;;;;5035769;27;93138;-50
2023/10/02 15:14:51;;;;;;;;;;;18.80;54.50;;;;;;5035757;27;94732;-53
2023/10/02 15:17:16;;;;;;;;;;;18.80;54.50;;;;;;5038659;27;92270;-49
2023/10/02 15:19:42;;;;;;;;;;;18.80;54.30;;;;;;5038408;27;92666;-49
2023/10/02 15:22:10;;;;;;;;;;;18.80;54.40;;;;;;5035593;27;93228;-49
2023/10/02 15:24:37;;;;;;;;;;;18.80;54.40;;;;;;5037509;27;92613;-50
2023/10/02 15:27:03;;;;;;;;;;;18.80;54.40;;;;;;5042049;27;93914;-52